createdAt,value
2018-04-22T00:02:07.409Z,21.87
2018-04-22T00:04:34.077Z,21.87
2018-04-22T00:07:00.799Z,21.88
2018-04-22T00:09:27.432Z,21.83
2018-04-22T00:11:54.151Z,21.87
2018-04-22T00:14:20.761Z,21.83
2018-04-22T00:16:47.432Z,21.81
2018-04-22T00:19:14.067Z,21.81
2018-04-22T00:21:40.713Z,21.79
2018-04-22T00:24:07.345Z,21.76
2018-04-22T00:26:33.986Z,21.77
2018-04-22T00:29:00.661Z,21.74
2018-04-22T00:31:27.277Z,21.76
2018-04-22T00:33:53.910Z,21.78
2018-04-22T00:36:20.578Z,21.72
2018-04-22T00:38:47.182Z,21.73
2018-04-22T00:41:13.854Z,21.71
2018-04-22T00:43:40.488Z,21.68
2018-04-22T00:46:07.170Z,21.68
2018-04-22T00:48:33.799Z,21.68
2018-04-22T00:51:00.446Z,21.67
2018-04-22T00:53:27.188Z,21.69
2018-04-22T00:55:53.825Z,21.65
2018-04-22T00:58:20.499Z,21.64
2018-04-22T01:00:47.189Z,21.61
2018-04-22T01:03:14.090Z,21.58
2018-04-22T01:05:40.725Z,21.56
2018-04-22T01:08:07.446Z,21.58
2018-04-22T01:10:34.072Z,21.58
2018-04-22T01:13:00.700Z,21.57
2018-04-22T01:15:27.389Z,21.55
2018-04-22T01:17:54.030Z,21.54
2018-04-22T01:20:20.663Z,21.51
2018-04-22T01:22:47.343Z,21.51
2018-04-22T01:25:14.009Z,21.53
2018-04-22T01:27:40.645Z,21.52
2018-04-22T01:30:07.317Z,21.46
2018-04-22T01:32:33.958Z,21.48
2018-04-22T01:35:00.586Z,21.45
2018-04-22T01:37:27.258Z,21.45
2018-04-22T01:39:53.927Z,21.43
2018-04-22T01:42:20.612Z,21.39
2018-04-22T01:44:47.246Z,21.38
2018-04-22T01:47:13.888Z,21.40
2018-04-22T01:49:40.560Z,21.37
2018-04-22T01:52:07.203Z,21.38
2018-04-22T01:54:33.882Z,21.37
2018-04-22T01:57:00.512Z,21.34
2018-04-22T01:59:29.069Z,21.33
2018-04-22T02:01:53.855Z,21.33
2018-04-22T02:04:20.484Z,21.30
2018-04-22T02:06:47.136Z,21.30
2018-04-22T02:09:13.803Z,21.29
2018-04-22T02:11:40.439Z,21.30
2018-04-22T02:14:07.050Z,21.27
2018-04-22T02:16:33.759Z,21.26
2018-04-22T02:19:00.358Z,21.26
2018-04-22T02:21:26.994Z,21.25
2018-04-22T02:23:53.643Z,21.24
2018-04-22T02:26:20.304Z,21.25
2018-04-22T02:28:46.992Z,21.25
2018-04-22T02:31:13.665Z,21.24
2018-04-22T02:33:40.331Z,21.25
2018-04-22T02:36:06.936Z,21.23
2018-04-22T02:38:33.605Z,21.23
2018-04-22T02:41:00.232Z,21.23
2018-04-22T02:43:26.880Z,21.17
2018-04-22T02:45:53.524Z,21.18
2018-04-22T02:48:20.132Z,21.18
2018-04-22T02:50:46.814Z,21.15
2018-04-22T02:53:13.448Z,21.15
2018-04-22T02:55:40.086Z,21.16
2018-04-22T02:58:06.747Z,21.16
2018-04-22T03:00:33.387Z,21.12
2018-04-22T03:02:59.987Z,21.11
2018-04-22T03:05:26.616Z,21.09
2018-04-22T03:07:53.292Z,21.11
2018-04-22T03:10:19.897Z,21.07
2018-04-22T03:12:46.574Z,21.08
2018-04-22T03:15:13.236Z,21.07
2018-04-22T03:17:39.914Z,21.06
2018-04-22T03:20:06.509Z,21.04
2018-04-22T03:22:33.180Z,21.03
2018-04-22T03:24:59.865Z,21.01
2018-04-22T03:27:26.470Z,20.99
2018-04-22T03:29:53.183Z,21.00
2018-04-22T03:32:19.782Z,21.01
2018-04-22T03:34:46.464Z,20.99
2018-04-22T03:37:13.134Z,20.97
2018-04-22T03:39:39.821Z,21.01
2018-04-22T03:42:06.419Z,20.96
2018-04-22T03:44:33.057Z,20.95
2018-04-22T03:46:59.700Z,20.98
2018-04-22T03:49:26.392Z,20.97
2018-04-22T03:51:53.026Z,21.02
2018-04-22T03:54:19.731Z,21.03
2018-04-22T03:56:46.329Z,21.06
2018-04-22T03:59:13.047Z,21.09
2018-04-22T04:01:39.726Z,21.24
2018-04-22T04:04:06.366Z,21.38
2018-04-22T04:06:33.085Z,21.49
2018-04-22T04:08:59.681Z,21.67
2018-04-22T04:11:26.361Z,21.70
2018-04-22T04:13:52.987Z,21.83
2018-04-22T04:16:19.727Z,21.70
2018-04-22T04:18:46.393Z,21.87
2018-04-22T04:21:12.998Z,22.16
2018-04-22T04:23:39.638Z,21.91
2018-04-22T04:26:06.273Z,22.16
2018-04-22T04:28:32.976Z,22.47
2018-04-22T04:30:59.626Z,22.62
2018-04-22T04:33:26.308Z,22.73
2018-04-22T04:35:52.953Z,22.88
2018-04-22T04:38:19.596Z,22.94
2018-04-22T04:40:46.230Z,23.08
2018-04-22T04:43:12.915Z,23.08
2018-04-22T04:45:39.578Z,22.99
2018-04-22T04:48:06.182Z,22.48
2018-04-22T04:50:32.859Z,22.29
2018-04-22T04:52:59.497Z,22.33
2018-04-22T04:55:26.130Z,22.37
2018-04-22T04:57:52.868Z,22.38
2018-04-22T05:00:19.465Z,22.45
2018-04-22T05:02:46.099Z,22.47
2018-04-22T05:05:12.814Z,22.54
2018-04-22T05:07:39.466Z,22.62
2018-04-22T05:10:06.157Z,22.64
2018-04-22T05:12:32.842Z,22.73
2018-04-22T05:14:59.472Z,22.86
2018-04-22T05:17:26.159Z,22.90
2018-04-22T05:19:52.813Z,22.94
2018-04-22T05:22:19.517Z,22.95
2018-04-22T05:24:46.130Z,23.01
2018-04-22T05:27:12.812Z,23.06
2018-04-22T05:29:39.444Z,23.13
2018-04-22T05:32:06.117Z,23.16
2018-04-22T05:34:32.893Z,23.30
2018-04-22T05:36:59.491Z,23.33
2018-04-22T05:39:26.169Z,23.35
2018-04-22T05:41:52.805Z,23.44
2018-04-22T05:44:19.486Z,23.49
2018-04-22T05:46:46.129Z,23.56
2018-04-22T05:49:12.900Z,23.60
2018-04-22T05:51:39.541Z,23.61
2018-04-22T05:54:06.204Z,23.70
2018-04-22T05:56:32.833Z,23.75
2018-04-22T05:58:59.479Z,23.77
2018-04-22T06:01:26.124Z,23.79
2018-04-22T06:03:52.798Z,23.78
2018-04-22T06:06:19.437Z,23.89
2018-04-22T06:08:46.113Z,23.93
2018-04-22T06:11:12.775Z,23.98
2018-04-22T06:13:39.444Z,24.02
2018-04-22T06:16:06.095Z,23.99
2018-04-22T06:18:32.797Z,24.04
2018-04-22T06:20:59.402Z,24.06
2018-04-22T06:23:26.038Z,24.11
2018-04-22T06:25:52.762Z,24.16
2018-04-22T06:28:19.377Z,24.16
2018-04-22T06:30:46.081Z,24.17
2018-04-22T06:33:12.680Z,24.20
2018-04-22T06:35:39.369Z,24.26
2018-04-22T06:38:05.976Z,24.27
2018-04-22T06:40:32.606Z,24.32
2018-04-22T06:42:59.244Z,24.36
2018-04-22T06:45:25.875Z,24.33
2018-04-22T06:47:52.526Z,24.42
2018-04-22T06:50:19.156Z,24.41
2018-04-22T06:52:45.797Z,24.39
2018-04-22T06:55:12.435Z,24.45
2018-04-22T06:57:39.058Z,24.49
2018-04-22T07:00:05.743Z,24.52
2018-04-22T07:02:32.342Z,24.55
2018-04-22T07:04:58.978Z,24.57
2018-04-22T07:07:25.646Z,24.51
2018-04-22T07:09:52.246Z,24.58
2018-04-22T07:12:18.916Z,24.55
2018-04-22T07:14:45.546Z,24.64
2018-04-22T07:17:12.149Z,24.61
2018-04-22T07:19:38.819Z,24.62
2018-04-22T07:22:05.416Z,24.63
2018-04-22T07:24:32.097Z,24.69
2018-04-22T07:26:58.732Z,24.66
2018-04-22T07:29:25.331Z,24.70
2018-04-22T07:31:51.979Z,24.66
2018-04-22T07:34:18.645Z,24.70
2018-04-22T07:36:45.244Z,24.69
2018-04-22T07:39:11.921Z,24.72
2018-04-22T07:41:38.550Z,24.73
2018-04-22T07:44:05.189Z,24.72
2018-04-22T07:46:31.814Z,24.70
2018-04-22T07:48:58.504Z,24.71
2018-04-22T07:51:25.111Z,24.72
2018-04-22T07:53:51.750Z,24.74
2018-04-22T07:56:18.387Z,24.77
2018-04-22T07:58:45.039Z,24.80
2018-04-22T08:01:11.669Z,24.77
2018-04-22T08:03:38.307Z,24.80
2018-04-22T08:06:04.980Z,24.77
2018-04-22T08:08:31.575Z,24.76
2018-04-22T08:10:58.212Z,24.77
2018-04-22T08:13:24.848Z,24.75
2018-04-22T08:15:51.489Z,24.74
2018-04-22T08:18:18.130Z,24.79
2018-04-22T08:20:44.795Z,24.75
2018-04-22T08:23:11.401Z,24.75
2018-04-22T08:25:38.095Z,24.80
2018-04-22T08:28:04.695Z,24.82
2018-04-22T08:30:31.331Z,24.76
2018-04-22T08:32:58.015Z,24.80
2018-04-22T08:35:24.617Z,24.81
2018-04-22T08:37:51.260Z,24.79
2018-04-22T08:40:17.895Z,24.80
2018-04-22T08:42:44.570Z,24.78
2018-04-22T08:45:11.167Z,24.82
2018-04-22T08:47:37.941Z,24.81
2018-04-22T08:50:04.596Z,24.82
2018-04-22T08:52:31.180Z,24.82
2018-04-22T08:54:57.852Z,24.82
2018-04-22T08:57:24.515Z,24.79
2018-04-22T08:59:51.125Z,24.80
2018-04-22T09:02:17.834Z,24.81
2018-04-22T09:04:44.608Z,24.82
2018-04-22T09:07:11.257Z,24.81
2018-04-22T09:09:38.029Z,24.76
2018-04-22T09:12:04.661Z,24.77
2018-04-22T09:14:31.297Z,24.80
2018-04-22T09:16:57.910Z,24.80
2018-04-22T09:19:24.588Z,24.81
2018-04-22T09:21:51.227Z,24.83
2018-04-22T09:24:17.829Z,24.82
2018-04-22T09:26:44.504Z,24.81
2018-04-22T09:29:11.153Z,24.80
2018-04-22T09:31:37.749Z,24.81
2018-04-22T09:34:04.429Z,24.83
2018-04-22T09:36:31.060Z,24.81
2018-04-22T09:38:57.657Z,24.82
2018-04-22T09:41:24.651Z,24.85
2018-04-22T09:43:51.294Z,24.84
2018-04-22T09:46:17.920Z,24.83
2018-04-22T09:48:44.525Z,24.81
2018-04-22T09:51:11.167Z,24.85
2018-04-22T09:53:37.801Z,24.87
2018-04-22T09:56:04.473Z,24.87
2018-04-22T09:58:31.116Z,24.87
2018-04-22T10:00:57.714Z,24.89
2018-04-22T10:03:24.394Z,24.91
2018-04-22T10:05:51.025Z,24.92
2018-04-22T10:08:17.658Z,24.91
2018-04-22T10:10:44.354Z,24.93
2018-04-22T10:13:11.003Z,24.96
2018-04-22T10:15:37.664Z,24.94
2018-04-22T10:18:04.298Z,24.95
2018-04-22T10:20:30.939Z,24.95
2018-04-22T10:22:57.540Z,25.02
2018-04-22T10:25:24.179Z,25.02
2018-04-22T10:27:50.814Z,25.01
2018-04-22T10:30:17.454Z,25.03
2018-04-22T10:32:44.085Z,25.03
2018-04-22T10:35:10.726Z,25.04
2018-04-22T10:37:37.360Z,25.05
2018-04-22T10:40:04.016Z,25.05
2018-04-22T10:42:30.628Z,25.05
2018-04-22T10:44:57.269Z,25.08
2018-04-22T10:47:23.893Z,25.08
2018-04-22T10:49:50.561Z,25.09
2018-04-22T10:52:17.213Z,25.11
2018-04-22T10:54:43.976Z,25.12
2018-04-22T10:57:10.650Z,25.11
2018-04-22T10:59:37.283Z,25.13
2018-04-22T11:02:05.197Z,25.16
2018-04-22T11:04:30.525Z,25.19
2018-04-22T11:06:57.197Z,25.16
2018-04-22T11:09:23.793Z,25.15
2018-04-22T11:11:50.491Z,25.15
2018-04-22T11:14:17.148Z,25.21
2018-04-22T11:16:43.716Z,25.22
2018-04-22T11:19:10.360Z,25.21
2018-04-22T11:21:37.021Z,25.23
2018-04-22T11:24:03.626Z,25.24
2018-04-22T11:26:30.354Z,25.24
2018-04-22T11:28:56.949Z,25.28
2018-04-22T11:31:23.609Z,25.24
2018-04-22T11:33:50.313Z,25.21
2018-04-22T11:36:16.950Z,25.20
2018-04-22T11:38:43.620Z,25.23
2018-04-22T11:41:10.253Z,25.29
2018-04-22T11:43:36.904Z,25.20
2018-04-22T11:46:04.872Z,25.24
2018-04-22T11:48:30.172Z,25.22
2018-04-22T11:50:56.945Z,25.29
2018-04-22T11:53:23.557Z,25.31
2018-04-22T11:55:50.189Z,25.30
2018-04-22T11:58:16.859Z,25.30
2018-04-22T12:00:43.499Z,25.30
2018-04-22T12:03:10.164Z,25.28
2018-04-22T12:05:36.804Z,25.30
2018-04-22T12:08:03.440Z,25.21
2018-04-22T12:10:30.083Z,25.29
2018-04-22T12:12:56.855Z,25.31
2018-04-22T12:15:23.514Z,25.31
2018-04-22T12:17:50.150Z,25.36
2018-04-22T12:20:16.790Z,25.37
2018-04-22T12:22:43.435Z,25.34
2018-04-22T12:25:10.080Z,25.35
2018-04-22T12:27:36.711Z,25.36
2018-04-22T12:30:03.421Z,25.36
2018-04-22T12:32:30.059Z,25.44
2018-04-22T12:34:56.707Z,25.40
2018-04-22T12:37:23.337Z,25.38
2018-04-22T12:39:49.974Z,25.44
2018-04-22T12:42:16.614Z,25.44
2018-04-22T12:44:43.250Z,25.54
2018-04-22T12:47:09.929Z,25.49
2018-04-22T12:49:36.559Z,25.52
2018-04-22T12:52:03.169Z,25.49
2018-04-22T12:54:29.838Z,25.48
2018-04-22T12:56:56.439Z,25.53
2018-04-22T12:59:23.117Z,25.54
2018-04-22T13:01:49.783Z,25.53
2018-04-22T13:04:16.381Z,25.52
2018-04-22T13:06:43.029Z,25.50
2018-04-22T13:09:09.707Z,25.48
2018-04-22T13:11:36.356Z,25.56
2018-04-22T13:14:03.019Z,25.55
2018-04-22T13:16:29.671Z,25.58
2018-04-22T13:18:56.279Z,25.62
2018-04-22T13:21:22.956Z,25.62
2018-04-22T13:23:49.562Z,25.60
2018-04-22T13:26:16.223Z,25.59
2018-04-22T13:28:42.861Z,25.64
2018-04-22T13:31:09.455Z,25.67
2018-04-22T13:33:36.168Z,25.62
2018-04-22T13:36:02.771Z,25.60
2018-04-22T13:38:29.409Z,25.61
2018-04-22T13:40:56.083Z,25.63
2018-04-22T13:43:22.779Z,25.64
2018-04-22T13:45:49.386Z,25.63
2018-04-22T13:48:16.024Z,25.69
2018-04-22T13:50:42.726Z,25.69
2018-04-22T13:53:09.331Z,25.68
2018-04-22T13:55:38.176Z,25.72
2018-04-22T13:58:04.809Z,25.71
2018-04-22T14:00:31.416Z,25.71
2018-04-22T14:02:58.049Z,25.73
2018-04-22T14:05:24.717Z,25.71
2018-04-22T14:07:51.351Z,25.69
2018-04-22T14:10:18.024Z,25.68
2018-04-22T14:12:44.668Z,25.72
2018-04-22T14:15:11.346Z,25.71
2018-04-22T14:17:37.954Z,25.73
2018-04-22T14:20:04.661Z,25.70
2018-04-22T14:22:31.333Z,25.72
2018-04-22T14:24:58.013Z,25.69
2018-04-22T14:27:24.610Z,25.67
2018-04-22T14:29:51.322Z,25.70
2018-04-22T14:32:17.952Z,25.75
2018-04-22T14:34:44.583Z,25.70
2018-04-22T14:37:11.182Z,25.70
2018-04-22T14:39:37.863Z,25.75
2018-04-22T14:42:04.461Z,25.71
2018-04-22T14:44:31.179Z,25.75
2018-04-22T14:46:57.820Z,25.69
2018-04-22T14:49:24.422Z,25.74
2018-04-22T14:51:51.056Z,25.70
2018-04-22T14:54:17.722Z,25.73
2018-04-22T14:56:44.367Z,25.71
2018-04-22T14:59:11.043Z,25.70
2018-04-22T15:01:37.756Z,25.74
2018-04-22T15:04:04.383Z,25.75
2018-04-22T15:06:31.142Z,25.77
2018-04-22T15:08:57.808Z,25.73
2018-04-22T15:11:24.413Z,25.76
2018-04-22T15:13:51.090Z,25.74
2018-04-22T15:16:17.745Z,25.72
2018-04-22T15:18:45.852Z,25.66
2018-04-22T15:21:11.023Z,25.70
2018-04-22T15:23:37.752Z,25.73
2018-04-22T15:26:04.460Z,25.69
2018-04-22T15:28:31.102Z,25.71
2018-04-22T15:30:57.749Z,25.71
2018-04-22T15:33:24.379Z,25.71
2018-04-22T15:35:51.025Z,25.73
2018-04-22T15:38:17.707Z,25.77
2018-04-22T15:40:44.384Z,25.74
2018-04-22T15:43:11.029Z,25.68
2018-04-22T15:45:37.630Z,25.86
2018-04-22T15:48:04.269Z,25.75
2018-04-22T15:50:30.946Z,25.80
2018-04-22T15:52:57.585Z,25.72
2018-04-22T15:55:24.322Z,25.72
2018-04-22T15:57:50.999Z,25.74
2018-04-22T16:00:17.600Z,25.71
2018-04-22T16:02:44.307Z,25.69
2018-04-22T16:05:10.958Z,25.71
2018-04-22T16:07:37.591Z,25.75
2018-04-22T16:10:04.279Z,25.75
2018-04-22T16:12:30.908Z,25.73
2018-04-22T16:14:57.546Z,25.79
2018-04-22T16:17:24.213Z,25.77
2018-04-22T16:19:50.806Z,25.81
2018-04-22T16:22:17.448Z,25.82
2018-04-22T16:24:44.091Z,25.86
2018-04-22T16:27:10.726Z,25.78
2018-04-22T16:29:37.403Z,25.79
2018-04-22T16:32:04.039Z,25.77
2018-04-22T16:34:30.710Z,25.71
2018-04-22T16:36:57.313Z,25.67
2018-04-22T16:39:23.987Z,25.66
2018-04-22T16:41:50.593Z,25.59
2018-04-22T16:44:17.265Z,25.59
2018-04-22T16:46:43.928Z,25.58
2018-04-22T16:49:10.524Z,25.57
2018-04-22T16:51:37.166Z,25.57
2018-04-22T16:54:03.839Z,25.54
2018-04-22T16:56:30.519Z,25.50
2018-04-22T16:58:57.187Z,25.48
2018-04-22T17:01:23.787Z,25.48
2018-04-22T17:03:50.431Z,25.44
2018-04-22T17:06:17.145Z,25.43
2018-04-22T17:08:43.814Z,25.43
2018-04-22T17:11:10.488Z,25.41
2018-04-22T17:13:37.131Z,25.40
2018-04-22T17:16:03.797Z,25.35
2018-04-22T17:18:30.442Z,25.36
2018-04-22T17:20:57.076Z,25.34
2018-04-22T17:23:23.828Z,25.33
2018-04-22T17:25:50.434Z,25.33
2018-04-22T17:28:17.080Z,25.30
2018-04-22T17:30:44.746Z,25.30
2018-04-22T17:33:10.374Z,25.28
2018-04-22T17:35:37.020Z,25.24
2018-04-22T17:38:03.652Z,25.23
2018-04-22T17:40:30.332Z,25.22
2018-04-22T17:42:56.970Z,25.20
2018-04-22T17:45:23.641Z,25.17
2018-04-22T17:47:50.232Z,25.17
2018-04-22T17:50:16.908Z,25.18
2018-04-22T17:52:43.507Z,25.15
2018-04-22T17:55:10.193Z,25.15
2018-04-22T17:57:36.818Z,25.10
2018-04-22T18:00:03.454Z,25.09
2018-04-22T18:02:30.093Z,25.10
2018-04-22T18:04:56.770Z,25.08
2018-04-22T18:07:23.413Z,24.99
2018-04-22T18:09:50.049Z,25.02
2018-04-22T18:12:16.719Z,25.01
2018-04-22T18:14:43.334Z,25.00
2018-04-22T18:17:09.966Z,24.98
2018-04-22T18:19:36.676Z,24.98
2018-04-22T18:22:03.270Z,24.94
2018-04-22T18:24:29.934Z,24.92
2018-04-22T18:26:56.539Z,24.91
2018-04-22T18:29:23.208Z,24.89
2018-04-22T18:31:49.881Z,24.89
2018-04-22T18:34:16.518Z,24.85
2018-04-22T18:36:43.187Z,24.82
2018-04-22T18:39:09.864Z,24.81
2018-04-22T18:41:36.479Z,24.80
2018-04-22T18:44:03.187Z,24.77
2018-04-22T18:46:29.790Z,24.75
2018-04-22T18:48:56.469Z,24.72
2018-04-22T18:51:23.173Z,24.73
2018-04-22T18:53:49.810Z,24.66
2018-04-22T18:56:16.459Z,24.66
2018-04-22T18:58:43.133Z,24.64
2018-04-22T19:01:09.767Z,24.63
2018-04-22T19:03:36.404Z,24.63
2018-04-22T19:06:03.033Z,24.59
2018-04-22T19:08:29.672Z,24.60
2018-04-22T19:10:56.307Z,24.60
2018-04-22T19:13:22.947Z,24.57
2018-04-22T19:15:49.579Z,24.55
2018-04-22T19:18:16.264Z,24.51
2018-04-22T19:20:42.980Z,24.52
2018-04-22T19:23:09.581Z,24.50
2018-04-22T19:25:36.211Z,24.47
2018-04-22T19:28:02.847Z,24.45
2018-04-22T19:30:29.529Z,24.48
2018-04-22T19:32:56.196Z,24.43
2018-04-22T19:35:22.848Z,24.42
2018-04-22T19:37:49.482Z,24.38
2018-04-22T19:40:16.146Z,24.38
2018-04-22T19:42:42.778Z,24.38
2018-04-22T19:45:09.426Z,24.34
2018-04-22T19:47:36.062Z,24.30
2018-04-22T19:50:02.733Z,24.36
2018-04-22T19:52:29.370Z,24.32
2018-04-22T19:54:56.073Z,24.32
2018-04-22T19:57:25.845Z,24.30
2018-04-22T19:59:52.451Z,24.29
2018-04-22T20:02:19.100Z,24.30
2018-04-22T20:04:45.766Z,24.25
2018-04-22T20:07:12.471Z,24.25
2018-04-22T20:09:39.073Z,24.24
2018-04-22T20:12:05.741Z,24.26
2018-04-22T20:14:32.391Z,24.23
2018-04-22T20:16:58.998Z,24.21
2018-04-22T20:19:25.716Z,24.21
2018-04-22T20:21:52.351Z,24.21
2018-04-22T20:24:18.984Z,24.19
2018-04-22T20:26:45.641Z,24.18
2018-04-22T20:29:12.282Z,24.13
2018-04-22T20:31:38.995Z,24.16
2018-04-22T20:34:05.636Z,24.11
2018-04-22T20:36:32.270Z,24.01
2018-04-22T20:38:58.945Z,24.08
2018-04-22T20:41:25.632Z,24.11
2018-04-22T20:43:52.265Z,24.08
2018-04-22T20:46:18.870Z,24.04
2018-04-22T20:48:45.530Z,24.05
2018-04-22T20:51:12.168Z,24.02
2018-04-22T20:53:38.895Z,24.01
2018-04-22T20:56:05.546Z,24.00
2018-04-22T20:58:32.222Z,23.96
2018-04-22T21:00:58.888Z,23.99
2018-04-22T21:03:25.591Z,23.97
2018-04-22T21:05:52.360Z,23.95
2018-04-22T21:08:19.039Z,23.96
2018-04-22T21:10:45.682Z,23.92
2018-04-22T21:13:12.313Z,23.91
2018-04-22T21:15:38.914Z,23.90
2018-04-22T21:18:05.582Z,23.86
2018-04-22T21:20:32.212Z,23.89
2018-04-22T21:22:58.853Z,23.86
2018-04-22T21:25:25.529Z,23.86
2018-04-22T21:27:52.171Z,23.83
2018-04-22T21:30:18.849Z,23.83
2018-04-22T21:32:45.470Z,23.80
2018-04-22T21:35:12.133Z,23.79
2018-04-22T21:37:38.808Z,23.79
2018-04-22T21:40:05.483Z,23.79
2018-04-22T21:42:32.130Z,23.76
2018-04-22T21:44:58.795Z,23.76
2018-04-22T21:47:25.507Z,23.75
2018-04-22T21:49:52.102Z,23.74
2018-04-22T21:52:18.770Z,23.72
2018-04-22T21:54:45.477Z,23.72
2018-04-22T21:57:12.118Z,23.69
2018-04-22T21:59:38.791Z,23.70
2018-04-22T22:02:05.449Z,23.66
2018-04-22T22:04:32.187Z,23.65
2018-04-22T22:06:58.790Z,23.64
2018-04-22T22:09:25.439Z,23.63
2018-04-22T22:11:52.148Z,23.62
2018-04-22T22:14:18.776Z,23.61
2018-04-22T22:16:45.421Z,23.59
2018-04-22T22:19:12.062Z,23.59
2018-04-22T22:21:38.788Z,23.59
2018-04-22T22:24:05.389Z,23.54
2018-04-22T22:26:32.062Z,23.53
2018-04-22T22:28:58.744Z,23.54
2018-04-22T22:31:25.408Z,23.50
2018-04-22T22:33:52.007Z,23.48
2018-04-22T22:36:18.757Z,23.48
2018-04-22T22:38:45.402Z,23.47
2018-04-22T22:41:12.034Z,23.45
2018-04-22T22:43:38.701Z,23.45
2018-04-22T22:46:05.345Z,23.41
2018-04-22T22:48:32.003Z,23.43
2018-04-22T22:50:58.632Z,23.40
2018-04-22T22:53:25.321Z,23.37
2018-04-22T22:55:51.956Z,23.36
2018-04-22T22:58:18.554Z,23.36
2018-04-22T23:00:45.200Z,23.33
2018-04-22T23:03:11.902Z,23.35
2018-04-22T23:05:38.531Z,23.33
2018-04-22T23:08:05.177Z,23.29
2018-04-22T23:10:31.811Z,23.31
2018-04-22T23:12:58.515Z,23.26
2018-04-22T23:15:25.189Z,23.29
2018-04-22T23:17:51.788Z,23.27
2018-04-22T23:20:18.426Z,23.26
2018-04-22T23:22:45.096Z,23.21
2018-04-22T23:25:11.737Z,23.21
2018-04-22T23:27:38.377Z,23.20
2018-04-22T23:30:05.087Z,23.17
2018-04-22T23:32:31.689Z,23.18
2018-04-22T23:34:58.317Z,23.16
2018-04-22T23:37:25.032Z,23.17
2018-04-22T23:39:51.660Z,23.14
2018-04-22T23:42:19.837Z,23.14
2018-04-22T23:44:44.904Z,23.13
2018-04-22T23:47:11.574Z,23.11
2018-04-22T23:49:38.246Z,23.10
2018-04-22T23:52:04.920Z,23.09
2018-04-22T23:54:31.595Z,23.09
2018-04-22T23:56:58.197Z,23.07
2018-04-22T23:59:24.840Z,23.06
